Portada
METAR-TAF:

METAR-TAF

Aeroports :

Aeroport de Port Bouet

Abidjan, Costa d'Ivori

latitud: 05-15N, longitud: 003-56W, altitud: 7 m

Observació

L'informe es va fer fa 35 minuts, a les 13:30 UTC
Vent 6 kt del Sud, variant entre Sud/Sud-Est i Sud-Oest
Temperatura 33°C
Humitat 53%
Pressió 1009 hPa
Visibilitat: 7000 m
Escasses núvols a una alçada de 1300 ft

METAR: DIAP 271330Z 18006KT 150V220 7000 FEW013 33/22 Q1009 TEMPO 4700 DU

Hora: 14:05 (14:05 UTC)

Pronòstic

L'informe es va fer fa 2 hores i 51 minuts, a les 11:14 UTC
Pronòstic vàlid del 27 a les 12 UTC al 28 a les 18 UTC
Vent 7 kt del Sud/Sud-Oest
Visibilitat: 7000 m
Escasses núvols a una alçada de 1300 ft
Probabilitat 30% :
Temporalment
l' 27 a les 15 UTC al 27 a les 21 UTC
Visibilitat: 4000 m
Pols estès
Temporalment
l' 28 a les 04 UTC al 28 a les 09 UTC
Visibilitat: 3000 m
Cel ennuvolat a una alçada de 1000 ft
boirina

TAF: DIAP 271114Z 2712/2818 20007KT 7000 FEW013 PROB30 TEMPO 2715/2721 4000 DU TEMPO 2804/2809 3000 BR BKN010

Observacions i pronòstics meteorològics de més de 4000 aeroports (METAR i TAF).

Les estacions disponibles són els punts grocs i vermells al mapa.

Posi el ratolí al punt desitjat per veure el nom de l'estació.

Feu clic per veure les observacions i els pronòstics meteorològics.

Per canviar el mapa: feu clic els botons verds amb una creu de color negre per apropar; al botó verd amb un guió per allunyar la imatge; o en les fletxes verdes per a mapes adjacents.


METAR-TAF: